sensor_id;sensor_type;location;lat;lon;timestamp;temperature;humidity
17998;DHT22;9124;48.144;17.098;2023-04-03T00:01:09;6.90;78.60
17998;DHT22;9124;48.144;17.098;2023-04-03T00:04:45;7.00;78.80
17998;DHT22;9124;48.144;17.098;2023-04-03T00:08:22;6.90;79.00
17998;DHT22;9124;48.144;17.098;2023-04-03T00:11:58;6.90;79.20
17998;DHT22;9124;48.144;17.098;2023-04-03T00:15:36;6.90;79.90
17998;DHT22;9124;48.144;17.098;2023-04-03T00:19:13;6.90;79.30
17998;DHT22;9124;48.144;17.098;2023-04-03T00:22:49;6.90;79.40
17998;DHT22;9124;48.144;17.098;2023-04-03T00:26:26;6.90;79.40
17998;DHT22;9124;48.144;17.098;2023-04-03T00:30:03;6.90;79.50
17998;DHT22;9124;48.144;17.098;2023-04-03T00:33:39;6.90;79.60
17998;DHT22;9124;48.144;17.098;2023-04-03T00:37:16;6.90;79.70
17998;DHT22;9124;48.144;17.098;2023-04-03T00:40:53;6.90;79.70
17998;DHT22;9124;48.144;17.098;2023-04-03T00:48:16;6.80;79.90
17998;DHT22;9124;48.144;17.098;2023-04-03T00:51:54;6.80;79.90
17998;DHT22;9124;48.144;17.098;2023-04-03T00:55:32;6.80;80.10
17998;DHT22;9124;48.144;17.098;2023-04-03T00:59:15;6.80;80.10
17998;DHT22;9124;48.144;17.098;2023-04-03T01:02:53;6.60;79.80
17998;DHT22;9124;48.144;17.098;2023-04-03T01:06:34;6.60;80.00
17998;DHT22;9124;48.144;17.098;2023-04-03T01:10:18;6.60;80.20
17998;DHT22;9124;48.144;17.098;2023-04-03T01:13:57;6.70;80.50
17998;DHT22;9124;48.144;17.098;2023-04-03T01:17:58;6.70;80.50
17998;DHT22;9124;48.144;17.098;2023-04-03T01:21:42;6.70;80.50
17998;DHT22;9124;48.144;17.098;2023-04-03T01:25:24;6.70;80.60
17998;DHT22;9124;48.144;17.098;2023-04-03T01:29:02;6.70;80.60
17998;DHT22;9124;48.144;17.098;2023-04-03T01:32:38;6.70;80.70
17998;DHT22;9124;48.144;17.098;2023-04-03T01:36:25;6.70;80.70
17998;DHT22;9124;48.144;17.098;2023-04-03T01:40:02;6.80;80.80
17998;DHT22;9124;48.144;17.098;2023-04-03T01:43:40;6.80;80.70
17998;DHT22;9124;48.144;17.098;2023-04-03T01:47:16;6.70;80.20
17998;DHT22;9124;48.144;17.098;2023-04-03T01:50:54;6.50;80.10
17998;DHT22;9124;48.144;17.098;2023-04-03T01:54:30;6.50;80.50
17998;DHT22;9124;48.144;17.098;2023-04-03T01:58:07;6.40;80.40
17998;DHT22;9124;48.144;17.098;2023-04-03T02:01:43;6.30;80.20
17998;DHT22;9124;48.144;17.098;2023-04-03T02:05:21;6.20;80.10
17998;DHT22;9124;48.144;17.098;2023-04-03T02:08:57;6.20;80.20
17998;DHT22;9124;48.144;17.098;2023-04-03T02:12:34;6.30;80.30
17998;DHT22;9124;48.144;17.098;2023-04-03T02:16:11;6.40;80.40
17998;DHT22;9124;48.144;17.098;2023-04-03T02:19:49;6.50;80.60
17998;DHT22;9124;48.144;17.098;2023-04-03T02:23:25;6.60;80.40
17998;DHT22;9124;48.144;17.098;2023-04-03T02:27:01;6.60;80.30
17998;DHT22;9124;48.144;17.098;2023-04-03T02:30:38;6.60;80.20
17998;DHT22;9124;48.144;17.098;2023-04-03T02:34:14;6.50;80.20
17998;DHT22;9124;48.144;17.098;2023-04-03T02:37:51;6.50;80.30
17998;DHT22;9124;48.144;17.098;2023-04-03T02:41:29;6.50;80.40
17998;DHT22;9124;48.144;17.098;2023-04-03T02:45:13;6.50;80.30
17998;DHT22;9124;48.144;17.098;2023-04-03T02:48:51;6.50;80.10
17998;DHT22;9124;48.144;17.098;2023-04-03T02:52:28;6.50;80.20
17998;DHT22;9124;48.144;17.098;2023-04-03T02:56:08;6.50;80.00
17998;DHT22;9124;48.144;17.098;2023-04-03T02:59:44;6.60;80.10
17998;DHT22;9124;48.144;17.098;2023-04-03T03:03:21;6.60;80.40
17998;DHT22;9124;48.144;17.098;2023-04-03T03:06:59;6.50;80.70
17998;DHT22;9124;48.144;17.098;2023-04-03T03:10:35;6.40;80.70
17998;DHT22;9124;48.144;17.098;2023-04-03T03:14:12;6.40;80.70
17998;DHT22;9124;48.144;17.098;2023-04-03T03:17:48;6.40;80.90
17998;DHT22;9124;48.144;17.098;2023-04-03T03:21:24;6.40;80.80
17998;DHT22;9124;48.144;17.098;2023-04-03T03:25:01;6.40;80.80
17998;DHT22;9124;48.144;17.098;2023-04-03T03:28:39;6.30;80.60
17998;DHT22;9124;48.144;17.098;2023-04-03T03:32:16;6.30;80.50
17998;DHT22;9124;48.144;17.098;2023-04-03T03:35:53;6.20;80.20
17998;DHT22;9124;48.144;17.098;2023-04-03T03:39:30;6.30;80.20
17998;DHT22;9124;48.144;17.098;2023-04-03T03:43:06;6.30;80.20
17998;DHT22;9124;48.144;17.098;2023-04-03T03:46:43;6.30;80.00
17998;DHT22;9124;48.144;17.098;2023-04-03T03:50:20;6.30;79.80
17998;DHT22;9124;48.144;17.098;2023-04-03T03:53:56;6.30;79.80
17998;DHT22;9124;48.144;17.098;2023-04-03T03:57:33;6.30;79.70
17998;DHT22;9124;48.144;17.098;2023-04-03T04:01:09;6.40;79.70
17998;DHT22;9124;48.144;17.098;2023-04-03T04:04:52;6.50;79.60
17998;DHT22;9124;48.144;17.098;2023-04-03T04:08:29;6.50;79.40
17998;DHT22;9124;48.144;17.098;2023-04-03T04:12:06;6.50;79.60
17998;DHT22;9124;48.144;17.098;2023-04-03T04:15:43;6.40;79.50
17998;DHT22;9124;48.144;17.098;2023-04-03T04:19:19;6.40;79.50
17998;DHT22;9124;48.144;17.098;2023-04-03T04:22:56;6.40;79.80
17998;DHT22;9124;48.144;17.098;2023-04-03T04:26:34;6.40;79.90
17998;DHT22;9124;48.144;17.098;2023-04-03T04:30:11;6.40;79.80
17998;DHT22;9124;48.144;17.098;2023-04-03T04:33:48;6.30;79.70
17998;DHT22;9124;48.144;17.098;2023-04-03T04:37:26;6.30;79.90
17998;DHT22;9124;48.144;17.098;2023-04-03T04:41:02;6.30;80.00
17998;DHT22;9124;48.144;17.098;2023-04-03T04:44:40;6.30;80.10
17998;DHT22;9124;48.144;17.098;2023-04-03T04:48:18;6.30;80.00
17998;DHT22;9124;48.144;17.098;2023-04-03T04:51:55;6.40;80.00
17998;DHT22;9124;48.144;17.098;2023-04-03T04:55:38;6.40;79.80
17998;DHT22;9124;48.144;17.098;2023-04-03T04:59:14;6.30;79.80
17998;DHT22;9124;48.144;17.098;2023-04-03T05:02:52;6.40;79.90
17998;DHT22;9124;48.144;17.098;2023-04-03T05:06:29;6.50;80.00
17998;DHT22;9124;48.144;17.098;2023-04-03T05:10:09;6.50;79.70
17998;DHT22;9124;48.144;17.098;2023-04-03T05:13:47;6.60;79.80
17998;DHT22;9124;48.144;17.098;2023-04-03T05:17:23;6.80;80.60
17998;DHT22;9124;48.144;17.098;2023-04-03T05:21:03;7.10;80.20
17998;DHT22;9124;48.144;17.098;2023-04-03T05:24:40;7.30;79.90
17998;DHT22;9124;48.144;17.098;2023-04-03T05:28:18;7.10;78.60
17998;DHT22;9124;48.144;17.098;2023-04-03T05:31:55;7.00;78.50
17998;DHT22;9124;48.144;17.098;2023-04-03T05:35:32;6.70;78.30
17998;DHT22;9124;48.144;17.098;2023-04-03T05:39:10;6.70;78.40
17998;DHT22;9124;48.144;17.098;2023-04-03T05:42:51;6.60;78.30
17998;DHT22;9124;48.144;17.098;2023-04-03T05:46:29;6.40;78.10
17998;DHT22;9124;48.144;17.098;2023-04-03T05:50:08;6.30;78.10
17998;DHT22;9124;48.144;17.098;2023-04-03T05:53:46;6.30;78.20
17998;DHT22;9124;48.144;17.098;2023-04-03T05:57:23;6.20;78.10
17998;DHT22;9124;48.144;17.098;2023-04-03T06:01:01;6.30;78.10
17998;DHT22;9124;48.144;17.098;2023-04-03T06:04:38;6.20;77.80
17998;DHT22;9124;48.144;17.098;2023-04-03T06:08:15;6.30;77.90
17998;DHT22;9124;48.144;17.098;2023-04-03T06:11:51;6.50;78.20
17998;DHT22;9124;48.144;17.098;2023-04-03T06:15:29;6.70;77.50
17998;DHT22;9124;48.144;17.098;2023-04-03T06:19:07;7.00;77.20
17998;DHT22;9124;48.144;17.098;2023-04-03T06:22:45;6.90;75.90
17998;DHT22;9124;48.144;17.098;2023-04-03T06:26:21;6.70;75.10
17998;DHT22;9124;48.144;17.098;2023-04-03T06:29:58;6.60;75.40
17998;DHT22;9124;48.144;17.098;2023-04-03T06:33:34;6.70;75.20
17998;DHT22;9124;48.144;17.098;2023-04-03T06:37:16;7.80;76.60
17998;DHT22;9124;48.144;17.098;2023-04-03T06:40:53;12.80;84.30
17998;DHT22;9124;48.144;17.098;2023-04-03T06:44:30;16.30;79.00
17998;DHT22;9124;48.144;17.098;2023-04-03T06:48:06;17.80;67.20
17998;DHT22;9124;48.144;17.098;2023-04-03T06:51:43;19.00;61.20
17998;DHT22;9124;48.144;17.098;2023-04-03T06:55:20;19.60;58.10
17998;DHT22;9124;48.144;17.098;2023-04-03T06:58:57;19.90;51.30
17998;DHT22;9124;48.144;17.098;2023-04-03T07:02:33;20.90;53.50
17998;DHT22;9124;48.144;17.098;2023-04-03T07:06:12;22.60;50.50
17998;DHT22;9124;48.144;17.098;2023-04-03T07:09:48;23.10;47.30
17998;DHT22;9124;48.144;17.098;2023-04-03T07:13:26;23.40;46.20
17998;DHT22;9124;48.144;17.098;2023-04-03T07:17:02;24.10;44.30
17998;DHT22;9124;48.144;17.098;2023-04-03T07:20:39;25.90;44.70
17998;DHT22;9124;48.144;17.098;2023-04-03T07:24:16;27.60;42.40
17998;DHT22;9124;48.144;17.098;2023-04-03T07:27:53;28.60;39.60
17998;DHT22;9124;48.144;17.098;2023-04-03T07:31:30;28.30;37.20
17998;DHT22;9124;48.144;17.098;2023-04-03T07:35:07;27.50;35.60
17998;DHT22;9124;48.144;17.098;2023-04-03T07:38:44;29.40;35.60
17998;DHT22;9124;48.144;17.098;2023-04-03T07:42:21;26.80;31.50
17998;DHT22;9124;48.144;17.098;2023-04-03T07:45:57;23.40;31.00
17998;DHT22;9124;48.144;17.098;2023-04-03T07:49:34;20.50;32.40
17998;DHT22;9124;48.144;17.098;2023-04-03T07:53:14;18.10;33.60
17998;DHT22;9124;48.144;17.098;2023-04-03T07:56:51;16.90;36.30
17998;DHT22;9124;48.144;17.098;2023-04-03T08:00:28;15.60;36.50
17998;DHT22;9124;48.144;17.098;2023-04-03T08:04:05;18.10;39.00
17998;DHT22;9124;48.144;17.098;2023-04-03T08:07:43;19.10;37.60
17998;DHT22;9124;48.144;17.098;2023-04-03T08:11:19;19.90;36.50
17998;DHT22;9124;48.144;17.098;2023-04-03T08:14:57;20.10;35.30
17998;DHT22;9124;48.144;17.098;2023-04-03T08:18:35;21.10;34.90
17998;DHT22;9124;48.144;17.098;2023-04-03T08:22:12;20.90;34.20
17998;DHT22;9124;48.144;17.098;2023-04-03T08:25:48;21.40;33.60
17998;DHT22;9124;48.144;17.098;2023-04-03T08:29:25;21.90;32.00
17998;DHT22;9124;48.144;17.098;2023-04-03T08:33:02;23.60;31.70
17998;DHT22;9124;48.144;17.098;2023-04-03T08:36:39;24.70;30.40
17998;DHT22;9124;48.144;17.098;2023-04-03T08:40:17;26.40;30.70
17998;DHT22;9124;48.144;17.098;2023-04-03T08:44:21;26.30;29.10
17998;DHT22;9124;48.144;17.098;2023-04-03T08:48:06;22.70;27.40
17998;DHT22;9124;48.144;17.098;2023-04-03T08:51:46;23.00;29.10
17998;DHT22;9124;48.144;17.098;2023-04-03T08:55:44;25.60;29.90
17998;DHT22;9124;48.144;17.098;2023-04-03T08:59:27;26.30;28.30
17998;DHT22;9124;48.144;17.098;2023-04-03T09:03:04;26.80;27.60
17998;DHT22;9124;48.144;17.098;2023-04-03T09:06:57;27.40;27.30
17998;DHT22;9124;48.144;17.098;2023-04-03T09:10:37;27.00;26.00
17998;DHT22;9124;48.144;17.098;2023-04-03T09:14:33;27.60;26.10
17998;DHT22;9124;48.144;17.098;2023-04-03T09:18:36;28.20;25.80
17998;DHT22;9124;48.144;17.098;2023-04-03T09:26:05;27.00;24.80
17998;DHT22;9124;48.144;17.098;2023-04-03T09:29:45;24.90;24.30
17998;DHT22;9124;48.144;17.098;2023-04-03T09:33:23;21.60;25.30
17998;DHT22;9124;48.144;17.098;2023-04-03T09:37:01;20.70;26.60
17998;DHT22;9124;48.144;17.098;2023-04-03T09:40:44;23.40;27.90
17998;DHT22;9124;48.144;17.098;2023-04-03T09:44:27;26.60;26.60
17998;DHT22;9124;48.144;17.098;2023-04-03T09:51:49;30.80;24.50
17998;DHT22;9124;48.144;17.098;2023-04-03T09:55:27;30.40;23.00
17998;DHT22;9124;48.144;17.098;2023-04-03T09:59:12;30.70;23.30
17998;DHT22;9124;48.144;17.098;2023-04-03T10:02:55;32.90;23.70
17998;DHT22;9124;48.144;17.098;2023-04-03T10:06:35;33.60;22.50
17998;DHT22;9124;48.144;17.098;2023-04-03T10:10:19;33.60;21.70
17998;DHT22;9124;48.144;17.098;2023-04-03T10:14:01;34.90;21.60
17998;DHT22;9124;48.144;17.098;2023-04-03T10:21:48;34.50;20.30
17998;DHT22;9124;48.144;17.098;2023-04-03T10:25:39;35.10;20.70
17998;DHT22;9124;48.144;17.098;2023-04-03T10:37:35;31.40;20.30
17998;DHT22;9124;48.144;17.098;2023-04-03T10:45:18;29.90;20.40
17998;DHT22;9124;48.144;17.098;2023-04-03T10:56:48;22.20;21.20
17998;DHT22;9124;48.144;17.098;2023-04-03T11:00:45;18.50;22.10
17998;DHT22;9124;48.144;17.098;2023-04-03T11:04:27;16.30;23.90
17998;DHT22;9124;48.144;17.098;2023-04-03T11:12:19;14.30;26.80
17998;DHT22;9124;48.144;17.098;2023-04-03T11:15:58;14.00;27.60
17998;DHT22;9124;48.144;17.098;2023-04-03T11:19:45;13.40;27.80
17998;DHT22;9124;48.144;17.098;2023-04-03T11:23:31;12.50;28.20
17998;DHT22;9124;48.144;17.098;2023-04-03T11:27:17;11.60;28.70
17998;DHT22;9124;48.144;17.098;2023-04-03T11:31:25;11.20;29.60
17998;DHT22;9124;48.144;17.098;2023-04-03T11:35:06;10.90;30.00
17998;DHT22;9124;48.144;17.098;2023-04-03T11:38:45;10.70;30.70
17998;DHT22;9124;48.144;17.098;2023-04-03T11:46:11;10.50;31.60
17998;DHT22;9124;48.144;17.098;2023-04-03T11:49:58;10.60;32.10
17998;DHT22;9124;48.144;17.098;2023-04-03T11:53:40;10.80;32.30
17998;DHT22;9124;48.144;17.098;2023-04-03T12:05:30;10.20;33.50
17998;DHT22;9124;48.144;17.098;2023-04-03T12:13:18;10.00;33.50
17998;DHT22;9124;48.144;17.098;2023-04-03T12:16:56;9.70;34.00
17998;DHT22;9124;48.144;17.098;2023-04-03T12:24:36;9.30;34.50
17998;DHT22;9124;48.144;17.098;2023-04-03T12:28:15;9.20;34.70
17998;DHT22;9124;48.144;17.098;2023-04-03T12:36:13;9.30;35.00
17998;DHT22;9124;48.144;17.098;2023-04-03T12:40:31;9.10;35.10
17998;DHT22;9124;48.144;17.098;2023-04-03T12:44:27;9.60;35.80
17998;DHT22;9124;48.144;17.098;2023-04-03T12:48:18;9.80;35.30
17998;DHT22;9124;48.144;17.098;2023-04-03T12:51:55;9.70;35.20
17998;DHT22;9124;48.144;17.098;2023-04-03T12:55:32;9.40;35.20
17998;DHT22;9124;48.144;17.098;2023-04-03T12:59:42;9.10;35.20
17998;DHT22;9124;48.144;17.098;2023-04-03T13:03:24;9.00;35.60
17998;DHT22;9124;48.144;17.098;2023-04-03T13:07:34;8.90;35.70
17998;DHT22;9124;48.144;17.098;2023-04-03T13:11:14;8.90;36.10
17998;DHT22;9124;48.144;17.098;2023-04-03T13:14:54;9.10;36.40
17998;DHT22;9124;48.144;17.098;2023-04-03T13:18:34;9.20;36.40
17998;DHT22;9124;48.144;17.098;2023-04-03T13:25:53;9.20;36.10
17998;DHT22;9124;48.144;17.098;2023-04-03T13:29:35;9.20;36.10
17998;DHT22;9124;48.144;17.098;2023-04-03T13:33:25;9.20;36.10
17998;DHT22;9124;48.144;17.098;2023-04-03T13:37:03;8.80;35.70
17998;DHT22;9124;48.144;17.098;2023-04-03T13:40:50;8.70;35.90
17998;DHT22;9124;48.144;17.098;2023-04-03T13:44:34;8.40;36.10
17998;DHT22;9124;48.144;17.098;2023-04-03T13:48:19;8.40;36.80
17998;DHT22;9124;48.144;17.098;2023-04-03T13:51:57;8.50;37.10
17998;DHT22;9124;48.144;17.098;2023-04-03T13:55:36;8.90;37.20
17998;DHT22;9124;48.144;17.098;2023-04-03T14:02:55;8.80;36.80
17998;DHT22;9124;48.144;17.098;2023-04-03T14:06:32;8.70;37.00
17998;DHT22;9124;48.144;17.098;2023-04-03T14:10:09;8.60;37.10
17998;DHT22;9124;48.144;17.098;2023-04-03T14:13:46;8.50;37.00
17998;DHT22;9124;48.144;17.098;2023-04-03T14:17:25;8.40;36.90
17998;DHT22;9124;48.144;17.098;2023-04-03T14:21:02;8.50;37.40
17998;DHT22;9124;48.144;17.098;2023-04-03T14:24:39;8.50;37.50
17998;DHT22;9124;48.144;17.098;2023-04-03T14:28:21;8.50;37.40
17998;DHT22;9124;48.144;17.098;2023-04-03T14:31:58;8.50;37.30
17998;DHT22;9124;48.144;17.098;2023-04-03T14:35:35;8.40;37.50
17998;DHT22;9124;48.144;17.098;2023-04-03T14:39:17;8.30;37.60
17998;DHT22;9124;48.144;17.098;2023-04-03T14:42:54;8.30;37.70
17998;DHT22;9124;48.144;17.098;2023-04-03T14:46:35;8.30;37.80
17998;DHT22;9124;48.144;17.098;2023-04-03T14:50:20;8.30;37.80
17998;DHT22;9124;48.144;17.098;2023-04-03T14:53:57;8.20;37.60
17998;DHT22;9124;48.144;17.098;2023-04-03T14:57:34;8.10;37.70
17998;DHT22;9124;48.144;17.098;2023-04-03T15:01:11;8.30;38.10
17998;DHT22;9124;48.144;17.098;2023-04-03T15:04:50;8.40;38.20
17998;DHT22;9124;48.144;17.098;2023-04-03T15:08:27;8.50;38.10
17998;DHT22;9124;48.144;17.098;2023-04-03T15:12:08;8.40;37.50
17998;DHT22;9124;48.144;17.098;2023-04-03T15:15:45;8.20;37.40
17998;DHT22;9124;48.144;17.098;2023-04-03T15:19:24;8.10;37.20
17998;DHT22;9124;48.144;17.098;2023-04-03T15:23:01;8.00;37.40
17998;DHT22;9124;48.144;17.098;2023-04-03T15:26:37;8.00;37.70
17998;DHT22;9124;48.144;17.098;2023-04-03T15:30:17;7.90;38.00
17998;DHT22;9124;48.144;17.098;2023-04-03T15:33:54;7.80;37.70
17998;DHT22;9124;48.144;17.098;2023-04-03T15:37:31;7.60;37.50
17998;DHT22;9124;48.144;17.098;2023-04-03T15:41:07;7.50;37.50
17998;DHT22;9124;48.144;17.098;2023-04-03T15:44:44;7.40;37.50
17998;DHT22;9124;48.144;17.098;2023-04-03T15:48:20;7.30;37.60
17998;DHT22;9124;48.144;17.098;2023-04-03T15:51:57;7.20;37.50
17998;DHT22;9124;48.144;17.098;2023-04-03T15:55:36;7.20;37.80
17998;DHT22;9124;48.144;17.098;2023-04-03T15:59:13;7.10;37.90
17998;DHT22;9124;48.144;17.098;2023-04-03T16:02:53;7.00;37.80
17998;DHT22;9124;48.144;17.098;2023-04-03T16:06:31;6.90;38.00
17998;DHT22;9124;48.144;17.098;2023-04-03T16:10:11;6.80;38.10
17998;DHT22;9124;48.144;17.098;2023-04-03T16:13:48;6.80;38.30
17998;DHT22;9124;48.144;17.098;2023-04-03T16:17:26;6.70;38.30
17998;DHT22;9124;48.144;17.098;2023-04-03T16:21:03;6.60;38.30
17998;DHT22;9124;48.144;17.098;2023-04-03T16:24:42;6.50;38.40
17998;DHT22;9124;48.144;17.098;2023-04-03T16:28:19;6.40;38.40
17998;DHT22;9124;48.144;17.098;2023-04-03T16:31:56;6.30;38.30
17998;DHT22;9124;48.144;17.098;2023-04-03T16:35:34;6.20;38.80
17998;DHT22;9124;48.144;17.098;2023-04-03T16:39:10;6.10;38.90
17998;DHT22;9124;48.144;17.098;2023-04-03T16:42:47;6.00;38.70
17998;DHT22;9124;48.144;17.098;2023-04-03T16:46:23;6.00;38.90
17998;DHT22;9124;48.144;17.098;2023-04-03T16:50:00;5.90;38.90
17998;DHT22;9124;48.144;17.098;2023-04-03T16:53:36;5.80;39.30
17998;DHT22;9124;48.144;17.098;2023-04-03T16:57:13;5.70;39.60
17998;DHT22;9124;48.144;17.098;2023-04-03T17:00:49;5.70;39.50
17998;DHT22;9124;48.144;17.098;2023-04-03T17:04:26;5.60;39.60
17998;DHT22;9124;48.144;17.098;2023-04-03T17:08:03;5.50;40.00
17998;DHT22;9124;48.144;17.098;2023-04-03T17:11:39;5.40;39.80
17998;DHT22;9124;48.144;17.098;2023-04-03T17:15:16;5.30;39.90
17998;DHT22;9124;48.144;17.098;2023-04-03T17:18:53;5.20;39.70
17998;DHT22;9124;48.144;17.098;2023-04-03T17:22:30;5.10;39.70
17998;DHT22;9124;48.144;17.098;2023-04-03T17:26:08;5.10;40.10
17998;DHT22;9124;48.144;17.098;2023-04-03T17:29:44;5.00;40.40
17998;DHT22;9124;48.144;17.098;2023-04-03T17:33:22;4.90;40.30
17998;DHT22;9124;48.144;17.098;2023-04-03T17:36:58;4.90;40.30
17998;DHT22;9124;48.144;17.098;2023-04-03T17:40:35;4.80;40.70
17998;DHT22;9124;48.144;17.098;2023-04-03T17:44:12;4.80;40.80
17998;DHT22;9124;48.144;17.098;2023-04-03T17:47:51;4.70;40.90
17998;DHT22;9124;48.144;17.098;2023-04-03T17:51:28;4.70;40.80
17998;DHT22;9124;48.144;17.098;2023-04-03T17:55:04;4.60;40.80
17998;DHT22;9124;48.144;17.098;2023-04-03T17:58:41;4.60;40.90
17998;DHT22;9124;48.144;17.098;2023-04-03T18:02:18;4.50;41.00
17998;DHT22;9124;48.144;17.098;2023-04-03T18:05:54;4.50;41.10
17998;DHT22;9124;48.144;17.098;2023-04-03T18:09:34;4.40;41.00
17998;DHT22;9124;48.144;17.098;2023-04-03T18:13:11;4.40;41.20
17998;DHT22;9124;48.144;17.098;2023-04-03T18:16:48;4.30;41.10
17998;DHT22;9124;48.144;17.098;2023-04-03T18:20:24;4.30;41.20
17998;DHT22;9124;48.144;17.098;2023-04-03T18:24:01;4.20;41.30
17998;DHT22;9124;48.144;17.098;2023-04-03T18:27:39;4.20;41.50
17998;DHT22;9124;48.144;17.098;2023-04-03T18:31:17;4.20;42.00
17998;DHT22;9124;48.144;17.098;2023-04-03T18:34:55;4.20;41.70
17998;DHT22;9124;48.144;17.098;2023-04-03T18:38:31;4.10;41.90
17998;DHT22;9124;48.144;17.098;2023-04-03T18:42:10;4.10;41.90
17998;DHT22;9124;48.144;17.098;2023-04-03T18:45:47;4.10;41.90
17998;DHT22;9124;48.144;17.098;2023-04-03T18:49:24;4.10;42.20
17998;DHT22;9124;48.144;17.098;2023-04-03T18:53:02;4.00;42.10
17998;DHT22;9124;48.144;17.098;2023-04-03T18:56:38;4.00;42.20
17998;DHT22;9124;48.144;17.098;2023-04-03T19:00:16;4.00;42.30
17998;DHT22;9124;48.144;17.098;2023-04-03T19:03:53;4.00;42.30
17998;DHT22;9124;48.144;17.098;2023-04-03T19:07:29;4.00;42.20
17998;DHT22;9124;48.144;17.098;2023-04-03T19:11:05;4.00;42.50
17998;DHT22;9124;48.144;17.098;2023-04-03T19:14:42;3.90;42.50
17998;DHT22;9124;48.144;17.098;2023-04-03T19:18:18;3.90;42.80
17998;DHT22;9124;48.144;17.098;2023-04-03T19:21:54;3.90;42.80
17998;DHT22;9124;48.144;17.098;2023-04-03T19:25:31;3.90;42.90
17998;DHT22;9124;48.144;17.098;2023-04-03T19:29:08;3.90;43.00
17998;DHT22;9124;48.144;17.098;2023-04-03T19:32:44;3.80;43.20
17998;DHT22;9124;48.144;17.098;2023-04-03T19:36:21;3.80;43.20
17998;DHT22;9124;48.144;17.098;2023-04-03T19:39:57;3.80;43.20
17998;DHT22;9124;48.144;17.098;2023-04-03T19:43:34;3.80;43.30
17998;DHT22;9124;48.144;17.098;2023-04-03T19:47:10;3.70;43.50
17998;DHT22;9124;48.144;17.098;2023-04-03T19:50:47;3.70;43.50
17998;DHT22;9124;48.144;17.098;2023-04-03T19:54:23;3.70;43.50
17998;DHT22;9124;48.144;17.098;2023-04-03T19:58:01;3.60;44.20
17998;DHT22;9124;48.144;17.098;2023-04-03T20:01:37;3.70;43.80
17998;DHT22;9124;48.144;17.098;2023-04-03T20:05:14;3.60;43.70
17998;DHT22;9124;48.144;17.098;2023-04-03T20:08:50;3.60;43.80
17998;DHT22;9124;48.144;17.098;2023-04-03T20:12:28;3.60;44.00
17998;DHT22;9124;48.144;17.098;2023-04-03T20:16:05;3.60;44.10
17998;DHT22;9124;48.144;17.098;2023-04-03T20:19:42;3.60;44.30
17998;DHT22;9124;48.144;17.098;2023-04-03T20:23:19;3.50;44.40
17998;DHT22;9124;48.144;17.098;2023-04-03T20:26:57;3.50;44.60
17998;DHT22;9124;48.144;17.098;2023-04-03T20:30:34;3.40;44.70
17998;DHT22;9124;48.144;17.098;2023-04-03T20:34:11;3.40;45.30
17998;DHT22;9124;48.144;17.098;2023-04-03T20:37:48;3.30;44.80
17998;DHT22;9124;48.144;17.098;2023-04-03T20:41:25;3.30;45.00
17998;DHT22;9124;48.144;17.098;2023-04-03T20:45:02;3.30;45.00
17998;DHT22;9124;48.144;17.098;2023-04-03T20:48:39;3.30;45.20
17998;DHT22;9124;48.144;17.098;2023-04-03T20:52:16;3.20;45.30
17998;DHT22;9124;48.144;17.098;2023-04-03T20:55:59;3.20;45.20
17998;DHT22;9124;48.144;17.098;2023-04-03T20:59:36;3.10;45.20
17998;DHT22;9124;48.144;17.098;2023-04-03T21:03:14;3.10;45.40
17998;DHT22;9124;48.144;17.098;2023-04-03T21:19:35;2.80;45.60
17998;DHT22;9124;48.144;17.098;2023-04-03T21:23:18;2.70;45.90
17998;DHT22;9124;48.144;17.098;2023-04-03T21:26:56;2.60;45.80
17998;DHT22;9124;48.144;17.098;2023-04-03T21:30:32;2.50;45.90
17998;DHT22;9124;48.144;17.098;2023-04-03T21:34:08;2.50;46.10
17998;DHT22;9124;48.144;17.098;2023-04-03T21:37:45;2.40;46.40
17998;DHT22;9124;48.144;17.098;2023-04-03T21:41:21;2.40;46.60
17998;DHT22;9124;48.144;17.098;2023-04-03T21:44:57;2.40;46.60
17998;DHT22;9124;48.144;17.098;2023-04-03T21:48:35;2.30;46.90
17998;DHT22;9124;48.144;17.098;2023-04-03T21:52:11;2.30;46.90
17998;DHT22;9124;48.144;17.098;2023-04-03T21:55:54;2.30;47.00
17998;DHT22;9124;48.144;17.098;2023-04-03T21:59:30;2.20;47.00
17998;DHT22;9124;48.144;17.098;2023-04-03T22:03:07;2.20;47.30
17998;DHT22;9124;48.144;17.098;2023-04-03T22:06:43;2.20;47.30
17998;DHT22;9124;48.144;17.098;2023-04-03T22:10:20;2.10;47.40
17998;DHT22;9124;48.144;17.098;2023-04-03T22:13:57;2.10;47.60
17998;DHT22;9124;48.144;17.098;2023-04-03T22:17:34;2.10;47.50
17998;DHT22;9124;48.144;17.098;2023-04-03T22:21:12;2.00;47.30
17998;DHT22;9124;48.144;17.098;2023-04-03T22:24:48;2.00;48.50
17998;DHT22;9124;48.144;17.098;2023-04-03T22:28:26;2.00;48.10
17998;DHT22;9124;48.144;17.098;2023-04-03T22:32:02;2.00;48.00
17998;DHT22;9124;48.144;17.098;2023-04-03T22:35:46;1.90;48.00
17998;DHT22;9124;48.144;17.098;2023-04-03T22:39:22;1.90;48.00
17998;DHT22;9124;48.144;17.098;2023-04-03T22:42:59;2.00;48.40
17998;DHT22;9124;48.144;17.098;2023-04-03T22:46:36;1.90;48.30
17998;DHT22;9124;48.144;17.098;2023-04-03T22:50:12;1.90;48.40
17998;DHT22;9124;48.144;17.098;2023-04-03T22:53:48;1.90;48.30
17998;DHT22;9124;48.144;17.098;2023-04-03T22:57:25;1.90;48.30
17998;DHT22;9124;48.144;17.098;2023-04-03T23:01:07;1.80;48.50
17998;DHT22;9124;48.144;17.098;2023-04-03T23:04:44;1.80;49.00
17998;DHT22;9124;48.144;17.098;2023-04-03T23:08:21;1.80;48.90
17998;DHT22;9124;48.144;17.098;2023-04-03T23:11:58;1.70;48.90
17998;DHT22;9124;48.144;17.098;2023-04-03T23:15:34;1.70;49.00
17998;DHT22;9124;48.144;17.098;2023-04-03T23:19:11;1.70;48.90
17998;DHT22;9124;48.144;17.098;2023-04-03T23:22:48;1.60;49.10
17998;DHT22;9124;48.144;17.098;2023-04-03T23:26:24;1.60;49.30
17998;DHT22;9124;48.144;17.098;2023-04-03T23:30:02;1.60;49.40
17998;DHT22;9124;48.144;17.098;2023-04-03T23:33:38;1.60;49.70
17998;DHT22;9124;48.144;17.098;2023-04-03T23:37:19;1.50;49.50
17998;DHT22;9124;48.144;17.098;2023-04-03T23:40:55;1.50;49.60
17998;DHT22;9124;48.144;17.098;2023-04-03T23:44:32;1.60;49.90
17998;DHT22;9124;48.144;17.098;2023-04-03T23:48:08;1.50;49.90
17998;DHT22;9124;48.144;17.098;2023-04-03T23:51:45;1.50;49.80
17998;DHT22;9124;48.144;17.098;2023-04-03T23:55:21;1.50;49.80
17998;DHT22;9124;48.144;17.098;2023-04-03T23:58:58;1.50;50.20
